createdAt,value
2019-05-29T00:00:33.988Z,1011.77
2019-05-29T00:01:33.917Z,1011.76
2019-05-29T00:02:33.876Z,1011.77
2019-05-29T00:03:33.863Z,1011.76
2019-05-29T00:04:33.787Z,1011.82
2019-05-29T00:05:33.760Z,1011.78
2019-05-29T00:06:33.754Z,1011.85
2019-05-29T00:07:33.672Z,1011.83
2019-05-29T00:08:33.622Z,1011.83
2019-05-29T00:09:33.589Z,1011.82
2019-05-29T00:10:33.544Z,1011.89
2019-05-29T00:11:33.504Z,1011.86
2019-05-29T00:12:33.500Z,1011.90
2019-05-29T00:13:33.409Z,1011.86
2019-05-29T00:14:33.400Z,1011.89
2019-05-29T00:15:33.328Z,1011.87
2019-05-29T00:16:33.284Z,1011.84
2019-05-29T00:17:33.247Z,1011.85
2019-05-29T00:18:33.238Z,1011.86
2019-05-29T00:19:33.167Z,1011.91
2019-05-29T00:20:33.135Z,1011.89
2019-05-29T00:21:33.073Z,1011.90
2019-05-29T00:22:33.037Z,1011.90
2019-05-29T00:23:33.027Z,1011.91
2019-05-29T00:24:32.950Z,1011.89
2019-05-29T00:25:32.901Z,1011.92
2019-05-29T00:26:32.862Z,1011.96
2019-05-29T00:27:32.825Z,1011.98
2019-05-29T00:28:32.810Z,1011.98
2019-05-29T00:29:32.738Z,1011.99
2019-05-29T00:30:32.700Z,1012.02
2019-05-29T00:31:32.654Z,1012.05
2019-05-29T00:32:32.613Z,1012.02
2019-05-29T00:33:32.602Z,1012.06
2019-05-29T00:34:32.523Z,1012.07
2019-05-29T00:35:32.482Z,1012.09
2019-05-29T00:36:32.461Z,1012.08
2019-05-29T00:37:32.401Z,1012.14
2019-05-29T00:38:32.393Z,1012.15
2019-05-29T00:39:32.372Z,1012.17
2019-05-29T00:40:32.301Z,1012.11
2019-05-29T00:41:32.235Z,1012.14
2019-05-29T00:42:32.192Z,1012.18
2019-05-29T00:43:32.149Z,1012.19
2019-05-29T00:44:34.651Z,1012.17
2019-05-29T00:45:32.057Z,1012.16
2019-05-29T00:46:32.024Z,1012.20
2019-05-29T00:47:31.972Z,1012.18
2019-05-29T00:48:31.938Z,1012.14
2019-05-29T00:49:31.894Z,1012.18
2019-05-29T00:50:32.942Z,1012.20
2019-05-29T00:51:31.809Z,1012.17
2019-05-29T00:52:31.769Z,1012.20
2019-05-29T00:53:31.729Z,1012.19
2019-05-29T00:54:31.675Z,1012.21
2019-05-29T00:55:31.641Z,1012.22
2019-05-29T00:56:31.629Z,1012.22
2019-05-29T00:57:31.551Z,1012.23
2019-05-29T00:58:31.504Z,1012.28
2019-05-29T00:59:31.465Z,1012.26
2019-05-29T01:00:31.423Z,1012.31
2019-05-29T01:01:31.384Z,1012.29
2019-05-29T01:02:31.380Z,1012.29
2019-05-29T01:03:31.298Z,1012.27
2019-05-29T01:04:31.261Z,1012.26
2019-05-29T01:05:31.211Z,1012.30
2019-05-29T01:06:31.166Z,1012.31
2019-05-29T01:07:31.158Z,1012.33
2019-05-29T01:08:31.080Z,1012.33
2019-05-29T01:09:31.041Z,1012.33
2019-05-29T01:10:31.002Z,1012.40
2019-05-29T01:11:30.956Z,1012.40
2019-05-29T01:12:30.912Z,1012.38
2019-05-29T01:13:30.905Z,1012.42
2019-05-29T01:14:30.831Z,1012.40
2019-05-29T01:15:30.801Z,1012.41
2019-05-29T01:16:30.745Z,1012.43
2019-05-29T01:17:30.730Z,1012.46
2019-05-29T01:18:30.655Z,1012.46
2019-05-29T01:19:30.621Z,1012.45
2019-05-29T01:20:30.572Z,1012.44
2019-05-29T01:21:30.532Z,1012.48
2019-05-29T01:22:30.529Z,1012.47
2019-05-29T01:23:30.449Z,1012.49
2019-05-29T01:24:30.405Z,1012.46
2019-05-29T01:25:30.359Z,1012.51
2019-05-29T01:26:30.313Z,1012.53
2019-05-29T01:27:30.280Z,1012.55
2019-05-29T01:28:30.266Z,1012.52
2019-05-29T01:29:30.190Z,1012.54
2019-05-29T01:30:30.145Z,1012.54
2019-05-29T01:31:30.101Z,1012.53
2019-05-29T01:32:30.063Z,1012.54
2019-05-29T01:33:30.050Z,1012.58
2019-05-29T01:34:29.980Z,1012.60
2019-05-29T01:35:29.941Z,1012.60
2019-05-29T01:36:29.893Z,1012.63
2019-05-29T01:37:29.877Z,1012.61
2019-05-29T01:38:29.805Z,1012.62
2019-05-29T01:39:29.759Z,1012.62
2019-05-29T01:40:29.838Z,1012.62
2019-05-29T01:41:29.683Z,1012.63
2019-05-29T01:42:29.639Z,1012.64
2019-05-29T01:43:29.589Z,1012.62
2019-05-29T01:44:29.546Z,1012.62
2019-05-29T01:45:29.506Z,1012.69
2019-05-29T01:46:29.497Z,1012.69
2019-05-29T01:47:29.461Z,1012.71
2019-05-29T01:48:29.385Z,1012.69
2019-05-29T01:49:29.333Z,1012.69
2019-05-29T01:50:29.295Z,1012.73
2019-05-29T01:51:29.251Z,1012.70
2019-05-29T01:52:29.206Z,1012.75
2019-05-29T01:53:29.202Z,1012.71
2019-05-29T01:54:29.125Z,1012.77
2019-05-29T01:55:29.086Z,1012.75
2019-05-29T01:56:29.039Z,1012.83
2019-05-29T01:57:29.026Z,1012.80
2019-05-29T01:58:28.949Z,1012.87
2019-05-29T01:59:28.932Z,1012.85
2019-05-29T02:00:28.879Z,1012.87
2019-05-29T02:01:28.819Z,1012.88
2019-05-29T02:02:28.775Z,1012.89
2019-05-29T02:03:28.767Z,1012.88
2019-05-29T02:04:28.697Z,1012.87
2019-05-29T02:05:28.659Z,1012.94
2019-05-29T02:06:28.613Z,1012.93
2019-05-29T02:07:28.567Z,1012.95
2019-05-29T02:08:28.560Z,1012.94
2019-05-29T02:09:28.475Z,1012.97
2019-05-29T02:10:28.433Z,1012.98
2019-05-29T02:11:28.405Z,1012.98
2019-05-29T02:12:28.348Z,1012.99
2019-05-29T02:13:28.310Z,1013.01
2019-05-29T02:14:28.314Z,1013.01
2019-05-29T02:15:32.527Z,1013.05
2019-05-29T02:16:28.176Z,1013.03
2019-05-29T02:17:28.136Z,1013.06
2019-05-29T02:18:28.097Z,1013.03
2019-05-29T02:19:28.269Z,1013.06
2019-05-29T02:20:28.009Z,1013.10
2019-05-29T02:21:28.441Z,1013.10
2019-05-29T02:22:27.916Z,1013.12
2019-05-29T02:23:28.272Z,1013.10
2019-05-29T02:24:27.869Z,1013.09
2019-05-29T02:25:27.793Z,1013.11
2019-05-29T02:26:27.752Z,1013.13
2019-05-29T02:27:27.794Z,1013.14
2019-05-29T02:28:27.669Z,1013.17
2019-05-29T02:29:27.613Z,1013.14
2019-05-29T02:30:30.438Z,1013.18
2019-05-29T02:31:28.834Z,1013.25
2019-05-29T02:32:27.870Z,1013.24
2019-05-29T02:33:28.363Z,1013.28
2019-05-29T02:34:29.444Z,1013.26
2019-05-29T02:35:29.442Z,1013.26
2019-05-29T02:36:28.685Z,1013.28
2019-05-29T02:37:28.968Z,1013.28
2019-05-29T02:38:27.669Z,1013.27
2019-05-29T02:39:27.683Z,1013.29
2019-05-29T02:40:29.440Z,1013.29
2019-05-29T02:41:28.450Z,1013.29
2019-05-29T02:42:27.192Z,1013.31
2019-05-29T02:43:27.781Z,1013.31
2019-05-29T02:44:27.618Z,1013.33
2019-05-29T02:45:50.784Z,1013.35
2019-05-29T02:46:28.614Z,1013.32
2019-05-29T02:47:28.069Z,1013.35
2019-05-29T02:48:27.600Z,1013.37
2019-05-29T02:49:28.127Z,1013.39
2019-05-29T02:50:28.809Z,1013.39
2019-05-29T02:51:28.308Z,1013.42
2019-05-29T02:52:28.560Z,1013.39
2019-05-29T02:53:28.268Z,1013.41
2019-05-29T02:54:27.277Z,1013.39
2019-05-29T02:55:26.992Z,1013.38
2019-05-29T02:56:26.985Z,1013.37
2019-05-29T02:57:26.939Z,1013.37
2019-05-29T02:58:27.740Z,1013.37
2019-05-29T02:59:27.580Z,1013.37
2019-05-29T03:00:27.625Z,1013.39
2019-05-29T03:01:27.750Z,1013.42
2019-05-29T03:02:27.753Z,1013.40
2019-05-29T03:03:27.339Z,1013.41
2019-05-29T03:04:26.678Z,1013.39
2019-05-29T03:05:26.083Z,1013.44
2019-05-29T03:06:26.277Z,1013.40
2019-05-29T03:07:26.405Z,1013.42
2019-05-29T03:08:27.055Z,1013.42
2019-05-29T03:09:26.626Z,1013.44
2019-05-29T03:10:26.682Z,1013.41
2019-05-29T03:11:27.118Z,1013.45
2019-05-29T03:12:27.065Z,1013.49
2019-05-29T03:13:27.444Z,1013.48
2019-05-29T03:14:27.129Z,1013.46
2019-05-29T03:15:26.106Z,1013.46
2019-05-29T03:16:26.690Z,1013.47
2019-05-29T03:17:25.716Z,1013.47
2019-05-29T03:18:25.821Z,1013.48
2019-05-29T03:19:25.943Z,1013.49
2019-05-29T03:20:25.965Z,1013.49
2019-05-29T03:21:26.114Z,1013.51
2019-05-29T03:22:26.278Z,1013.51
2019-05-29T03:23:26.590Z,1013.49
2019-05-29T03:24:26.686Z,1013.48
2019-05-29T03:25:26.500Z,1013.54
2019-05-29T03:26:26.979Z,1013.55
2019-05-29T03:27:25.676Z,1013.57
2019-05-29T03:28:25.684Z,1013.57
2019-05-29T03:29:25.999Z,1013.61
2019-05-29T03:30:27.981Z,1013.59
2019-05-29T03:31:29.952Z,1013.64
2019-05-29T03:32:28.272Z,1013.65
2019-05-29T03:33:27.410Z,1013.70
2019-05-29T03:34:27.366Z,1013.74
2019-05-29T03:35:27.267Z,1013.70
2019-05-29T03:36:27.421Z,1013.76
2019-05-29T03:37:26.171Z,1013.79
2019-05-29T03:38:25.952Z,1013.83
2019-05-29T03:39:26.214Z,1013.80
2019-05-29T03:40:26.348Z,1013.85
2019-05-29T03:41:26.179Z,1013.85
2019-05-29T03:42:26.257Z,1013.87
2019-05-29T03:43:24.443Z,1013.91
2019-05-29T03:44:24.364Z,1013.91
2019-05-29T03:45:24.312Z,1013.95
2019-05-29T03:46:31.567Z,1013.95
2019-05-29T03:47:24.225Z,1013.98
2019-05-29T03:48:25.833Z,1014.01
2019-05-29T03:49:24.184Z,1014.01
2019-05-29T03:50:26.257Z,1014.01
2019-05-29T03:51:24.050Z,1014.01
2019-05-29T03:52:24.007Z,1014.02
2019-05-29T03:53:23.976Z,1014.01
2019-05-29T03:54:23.945Z,1014.01
2019-05-29T03:55:23.916Z,1014.05
2019-05-29T03:56:23.837Z,1014.06
2019-05-29T03:57:23.790Z,1014.04
2019-05-29T03:58:23.752Z,1014.09
2019-05-29T03:59:23.746Z,1014.06
2019-05-29T04:00:23.662Z,1014.05
2019-05-29T04:01:23.633Z,1014.06
2019-05-29T04:02:23.580Z,1014.04
2019-05-29T04:03:23.543Z,1014.03
2019-05-29T04:04:23.491Z,1014.01
2019-05-29T04:05:23.474Z,1014.02
2019-05-29T04:06:23.442Z,1014.04
2019-05-29T04:07:23.362Z,1014.05
2019-05-29T04:08:23.319Z,1014.06
2019-05-29T04:09:23.304Z,1014.06
2019-05-29T04:10:23.226Z,1014.07
2019-05-29T04:11:23.193Z,1014.11
2019-05-29T04:12:23.140Z,1014.11
2019-05-29T04:13:23.100Z,1014.11
2019-05-29T04:14:23.061Z,1014.12
2019-05-29T04:15:23.045Z,1014.12
2019-05-29T04:16:22.970Z,1014.16
2019-05-29T04:17:22.932Z,1014.12
2019-05-29T04:18:22.881Z,1014.15
2019-05-29T04:19:22.875Z,1014.16
2019-05-29T04:20:22.790Z,1014.19
2019-05-29T04:21:22.756Z,1014.17
2019-05-29T04:22:22.733Z,1014.19
2019-05-29T04:23:22.661Z,1014.23
2019-05-29T04:24:22.656Z,1014.26
2019-05-29T04:25:22.589Z,1014.24
2019-05-29T04:26:22.538Z,1014.28
2019-05-29T04:27:22.491Z,1014.26
2019-05-29T04:28:22.449Z,1014.30
2019-05-29T04:29:22.400Z,1014.35
2019-05-29T04:30:22.423Z,1014.33
2019-05-29T04:31:22.315Z,1014.38
2019-05-29T04:32:22.283Z,1014.41
2019-05-29T04:33:22.234Z,1014.40
2019-05-29T04:34:22.232Z,1014.40
2019-05-29T04:35:22.146Z,1014.45
2019-05-29T04:36:22.114Z,1014.51
2019-05-29T04:37:22.051Z,1014.59
2019-05-29T04:38:22.011Z,1014.67
2019-05-29T04:39:21.972Z,1014.66
2019-05-29T04:40:21.959Z,1014.74
2019-05-29T04:41:21.888Z,1014.74
2019-05-29T04:42:21.839Z,1014.79
2019-05-29T04:43:21.793Z,1014.77
2019-05-29T04:44:21.789Z,1014.81
2019-05-29T04:45:21.722Z,1014.86
2019-05-29T04:46:21.675Z,1014.91
2019-05-29T04:47:21.664Z,1014.93
2019-05-29T04:48:21.634Z,1014.98
2019-05-29T04:49:21.545Z,1015.01
2019-05-29T04:50:21.514Z,1015.03
2019-05-29T04:51:21.461Z,1015.02
2019-05-29T04:52:21.426Z,1015.05
2019-05-29T04:53:21.420Z,1015.10
2019-05-29T04:54:21.340Z,1015.15
2019-05-29T04:55:21.336Z,1015.14
2019-05-29T04:56:21.257Z,1015.16
2019-05-29T04:57:21.222Z,1015.21
2019-05-29T04:58:21.179Z,1015.21
2019-05-29T04:59:21.144Z,1015.25
2019-05-29T05:00:21.151Z,1015.27
2019-05-29T05:01:21.095Z,1015.31
2019-05-29T05:02:21.019Z,1015.33
2019-05-29T05:03:20.977Z,1015.33
2019-05-29T05:04:20.944Z,1015.33
2019-05-29T05:05:20.928Z,1015.35
2019-05-29T05:06:20.900Z,1015.37
2019-05-29T05:07:20.831Z,1015.36
2019-05-29T05:08:20.821Z,1015.39
2019-05-29T05:09:20.745Z,1015.40
2019-05-29T05:10:20.706Z,1015.42
2019-05-29T05:11:20.677Z,1015.42
2019-05-29T05:12:20.671Z,1015.43
2019-05-29T05:13:20.594Z,1015.45
2019-05-29T05:14:20.557Z,1015.48
2019-05-29T05:15:20.517Z,1015.49
2019-05-29T05:16:20.483Z,1015.50
2019-05-29T05:17:26.080Z,1015.52
2019-05-29T05:18:20.414Z,1015.50
2019-05-29T05:19:20.374Z,1015.57
2019-05-29T05:20:20.359Z,1015.56
2019-05-29T05:21:20.295Z,1015.58
2019-05-29T05:22:20.259Z,1015.54
2019-05-29T05:23:20.251Z,1015.60
2019-05-29T05:24:20.186Z,1015.60
2019-05-29T05:25:20.151Z,1015.55
2019-05-29T05:26:20.118Z,1015.60
2019-05-29T05:27:20.080Z,1015.64
2019-05-29T05:28:20.070Z,1015.60
2019-05-29T05:29:20.007Z,1015.64
2019-05-29T05:30:19.973Z,1015.58
2019-05-29T05:31:19.937Z,1015.61
2019-05-29T05:32:19.898Z,1015.61
2019-05-29T05:33:19.900Z,1015.64
2019-05-29T05:34:19.822Z,1015.62
2019-05-29T05:35:19.783Z,1015.64
2019-05-29T05:36:19.751Z,1015.64
2019-05-29T05:37:19.721Z,1015.67
2019-05-29T05:38:19.682Z,1015.67
2019-05-29T05:39:19.681Z,1015.71
2019-05-29T05:40:19.609Z,1015.74
2019-05-29T05:41:19.568Z,1015.75
2019-05-29T05:42:19.531Z,1015.78
2019-05-29T05:43:24.029Z,1015.78
2019-05-29T05:44:19.514Z,1015.86
2019-05-29T05:45:19.457Z,1015.84
2019-05-29T05:46:19.392Z,1015.86
2019-05-29T05:47:19.364Z,1015.89
2019-05-29T05:48:19.318Z,1015.93
2019-05-29T05:49:19.295Z,1015.96
2019-05-29T05:50:19.290Z,1015.97
2019-05-29T05:51:19.251Z,1015.97
2019-05-29T05:52:19.193Z,1016.01
2019-05-29T05:53:19.141Z,1016.02
2019-05-29T05:54:19.105Z,1015.98
2019-05-29T05:55:19.077Z,1016.04
2019-05-29T05:56:19.073Z,1016.05
2019-05-29T05:57:19.018Z,1016.07
2019-05-29T05:58:18.976Z,1016.10
2019-05-29T05:59:18.931Z,1016.11
2019-05-29T06:00:18.896Z,1016.11
2019-05-29T06:01:18.901Z,1016.12
2019-05-29T06:02:18.833Z,1016.12
2019-05-29T06:03:18.842Z,1016.16
2019-05-29T06:04:18.763Z,1016.17
2019-05-29T06:05:18.722Z,1016.20
2019-05-29T06:06:18.695Z,1016.22
2019-05-29T06:07:18.653Z,1016.23
2019-05-29T06:08:18.626Z,1016.26
2019-05-29T06:09:18.628Z,1016.32
2019-05-29T06:10:18.558Z,1016.43
2019-05-29T06:11:18.521Z,1016.48
2019-05-29T06:12:18.488Z,1016.60
2019-05-29T06:13:18.456Z,1016.70
2019-05-29T06:14:18.452Z,1016.83
2019-05-29T06:15:18.388Z,1016.85
2019-05-29T06:16:18.355Z,1016.88
2019-05-29T06:17:21.761Z,1016.87
2019-05-29T06:18:27.212Z,1016.81
2019-05-29T06:19:18.252Z,1016.80
2019-05-29T06:20:18.217Z,1016.79
2019-05-29T06:21:18.185Z,1016.81
2019-05-29T06:22:18.150Z,1016.82
2019-05-29T06:23:18.112Z,1016.82
2019-05-29T06:24:18.112Z,1016.89
2019-05-29T06:25:18.212Z,1016.91
2019-05-29T06:26:18.019Z,1016.88
2019-05-29T06:27:18.145Z,1016.90
2019-05-29T06:28:17.947Z,1016.91
2019-05-29T06:29:25.480Z,1016.93
2019-05-29T06:30:17.909Z,1016.99
2019-05-29T06:31:18.316Z,1016.99
2019-05-29T06:32:17.826Z,1016.90
2019-05-29T06:33:27.280Z,1016.97
2019-05-29T06:34:17.763Z,1016.99
2019-05-29T06:35:17.705Z,1017.05
2019-05-29T06:36:17.754Z,1017.11
2019-05-29T06:37:17.644Z,1017.15
2019-05-29T06:38:17.608Z,1017.17
2019-05-29T06:39:26.348Z,1017.22
2019-05-29T06:40:26.375Z,1017.33
2019-05-29T06:41:26.908Z,1017.39
2019-05-29T06:42:26.936Z,1017.40
2019-05-29T06:43:26.467Z,1017.54
2019-05-29T06:44:17.396Z,1017.56
2019-05-29T06:45:17.446Z,1017.57
2019-05-29T06:46:17.365Z,1017.69
2019-05-29T06:47:17.317Z,1017.72
2019-05-29T06:48:17.264Z,1017.80
2019-05-29T06:49:17.380Z,1017.91
2019-05-29T06:50:17.232Z,1017.92
2019-05-29T06:51:17.176Z,1017.88
2019-05-29T06:52:17.134Z,1017.83
2019-05-29T06:53:17.099Z,1017.94
2019-05-29T06:54:17.075Z,1018.01
2019-05-29T06:55:17.055Z,1018.04
2019-05-29T06:56:17.509Z,1018.04
2019-05-29T06:57:16.972Z,1017.95
2019-05-29T06:58:16.935Z,1017.97
2019-05-29T06:59:16.894Z,1017.93
2019-05-29T07:00:33.968Z,1017.86
2019-05-29T07:01:16.829Z,1017.80
2019-05-29T07:02:16.791Z,1017.80
2019-05-29T07:03:16.819Z,1017.77
2019-05-29T07:04:16.725Z,1017.64
2019-05-29T07:05:16.689Z,1017.60
2019-05-29T07:06:16.686Z,1017.54
2019-05-29T07:07:16.623Z,1017.46
2019-05-29T07:08:24.165Z,1017.39
2019-05-29T07:09:16.563Z,1017.39
2019-05-29T07:10:16.532Z,1017.40
2019-05-29T07:11:16.520Z,1017.37
2019-05-29T07:12:16.458Z,1017.37
2019-05-29T07:13:16.440Z,1017.46
2019-05-29T07:14:16.491Z,1017.43
2019-05-29T07:15:16.468Z,1017.41
2019-05-29T07:16:16.327Z,1017.45
2019-05-29T07:17:16.321Z,1017.40
2019-05-29T07:18:16.258Z,1017.40
2019-05-29T07:19:26.471Z,1017.38
2019-05-29T07:20:16.198Z,1017.46
2019-05-29T07:21:16.169Z,1017.44
2019-05-29T07:22:16.154Z,1017.38
2019-05-29T07:23:16.091Z,1017.41
2019-05-29T07:24:16.059Z,1017.42
2019-05-29T07:25:16.034Z,1017.43
2019-05-29T07:26:16.009Z,1017.40
2019-05-29T07:27:15.995Z,1017.45
2019-05-29T07:28:15.968Z,1017.42
2019-05-29T07:29:15.894Z,1017.43
2019-05-29T07:30:15.864Z,1017.40
2019-05-29T07:31:15.832Z,1017.39
2019-05-29T07:32:15.800Z,1017.40
2019-05-29T07:33:15.765Z,1017.41
2019-05-29T07:34:15.765Z,1017.41
2019-05-29T07:35:15.691Z,1017.40
2019-05-29T07:36:15.671Z,1017.39
2019-05-29T07:37:15.638Z,1017.42
2019-05-29T07:38:15.609Z,1017.44
2019-05-29T07:39:15.602Z,1017.42
2019-05-29T07:40:15.534Z,1017.45
2019-05-29T07:41:15.504Z,1017.43
2019-05-29T07:42:15.467Z,1017.42
2019-05-29T07:43:15.435Z,1017.43
2019-05-29T07:44:15.396Z,1017.44
2019-05-29T07:45:15.409Z,1017.43
2019-05-29T07:46:15.338Z,1017.51
2019-05-29T07:47:15.306Z,1017.52
2019-05-29T07:48:15.273Z,1017.52
2019-05-29T07:49:15.290Z,1017.53
2019-05-29T07:50:15.203Z,1017.53
2019-05-29T07:51:15.206Z,1017.53
2019-05-29T07:52:15.154Z,1017.53
2019-05-29T07:53:15.108Z,1017.58
2019-05-29T07:54:15.078Z,1017.60
2019-05-29T07:55:15.040Z,1017.54
2019-05-29T07:56:22.650Z,1017.55
2019-05-29T07:57:14.983Z,1017.54
2019-05-29T07:58:14.947Z,1017.54
2019-05-29T07:59:14.915Z,1017.56
2019-05-29T08:00:14.883Z,1017.55
2019-05-29T08:01:14.885Z,1017.60
2019-05-29T08:02:14.819Z,1017.60
2019-05-29T08:03:14.807Z,1017.52
2019-05-29T08:04:14.751Z,1017.51
2019-05-29T08:05:14.727Z,1017.51
2019-05-29T08:06:14.694Z,1017.51
2019-05-29T08:07:14.690Z,1017.50
2019-05-29T08:08:14.619Z,1017.53
2019-05-29T08:09:14.596Z,1017.53
2019-05-29T08:10:14.608Z,1017.47
2019-05-29T08:11:14.536Z,1017.49
2019-05-29T08:12:14.531Z,1017.49
2019-05-29T08:13:14.488Z,1017.49
2019-05-29T08:14:14.431Z,1017.48
2019-05-29T08:15:14.404Z,1017.48
2019-05-29T08:16:14.364Z,1017.45
2019-05-29T08:17:14.335Z,1017.49
2019-05-29T08:18:14.342Z,1017.49
2019-05-29T08:19:14.277Z,1017.47
2019-05-29T08:20:14.244Z,1017.51
2019-05-29T08:21:14.201Z,1017.52
2019-05-29T08:22:14.170Z,1017.10
2019-05-29T08:23:14.150Z,1017.48
2019-05-29T08:24:14.157Z,1017.50
2019-05-29T08:25:14.082Z,1017.48
2019-05-29T08:26:14.045Z,1017.48
2019-05-29T08:27:14.010Z,1017.48
2019-05-29T08:28:13.983Z,1017.49
2019-05-29T08:29:13.990Z,1017.44
2019-05-29T08:30:13.928Z,1017.45
2019-05-29T08:31:13.898Z,1017.45
2019-05-29T08:32:14.327Z,1017.46
2019-05-29T08:33:13.824Z,1017.45
2019-05-29T08:34:13.824Z,1017.46
2019-05-29T08:35:13.758Z,1017.44
2019-05-29T08:36:13.741Z,1017.51
2019-05-29T08:37:13.702Z,1017.50
2019-05-29T08:38:13.679Z,1017.54
2019-05-29T08:39:13.675Z,1017.53
2019-05-29T08:40:13.642Z,1017.51
2019-05-29T08:41:13.580Z,1017.52
2019-05-29T08:42:23.803Z,1017.50
2019-05-29T08:43:13.515Z,1017.54
2019-05-29T08:44:13.485Z,1017.54
2019-05-29T08:45:13.469Z,1017.54
2019-05-29T08:46:13.439Z,1017.55
2019-05-29T08:47:13.377Z,1017.57
2019-05-29T08:48:13.354Z,1017.56
2019-05-29T08:49:13.325Z,1017.56
2019-05-29T08:50:18.634Z,1017.64
2019-05-29T08:51:13.298Z,1017.67
2019-05-29T08:52:13.247Z,1017.66
2019-05-29T08:53:13.187Z,1017.66
2019-05-29T08:54:23.610Z,1017.69
2019-05-29T08:55:13.924Z,1017.71
2019-05-29T08:56:13.202Z,1017.69
2019-05-29T08:57:13.130Z,1017.73
2019-05-29T08:58:13.047Z,1017.72
2019-05-29T08:59:13.009Z,1017.65
2019-05-29T09:00:13.021Z,1017.61
2019-05-29T09:01:12.979Z,1017.61
2019-05-29T09:02:12.943Z,1017.60
2019-05-29T09:03:12.904Z,1017.54
2019-05-29T09:04:12.870Z,1017.55
2019-05-29T09:05:12.817Z,1017.57
2019-05-29T09:06:13.760Z,1017.52
2019-05-29T09:07:12.861Z,1017.46
2019-05-29T09:08:12.779Z,1017.50
2019-05-29T09:09:12.690Z,1017.58
2019-05-29T09:10:12.653Z,1017.67
2019-05-29T09:11:12.616Z,1017.61
2019-05-29T09:12:12.626Z,1017.57
2019-05-29T09:13:12.565Z,1017.54
2019-05-29T09:14:12.549Z,1017.48
2019-05-29T09:15:12.499Z,1017.48
2019-05-29T09:16:12.458Z,1017.50
2019-05-29T09:17:12.422Z,1017.65
2019-05-29T09:18:12.993Z,1017.67
2019-05-29T09:19:12.368Z,1017.59
2019-05-29T09:20:30.599Z,1017.50
2019-05-29T09:21:13.908Z,1017.51
2019-05-29T09:22:13.381Z,1017.45
2019-05-29T09:23:12.762Z,1017.44
2019-05-29T09:24:14.113Z,1017.42
2019-05-29T09:25:13.624Z,1017.42
2019-05-29T09:26:17.683Z,1017.44
2019-05-29T09:27:12.742Z,1017.43
2019-05-29T09:28:14.024Z,1017.39
2019-05-29T09:29:17.809Z,1017.36
2019-05-29T09:30:13.885Z,1017.39
2019-05-29T09:31:11.966Z,1017.38
2019-05-29T09:32:11.933Z,1017.41
2019-05-29T09:33:11.899Z,1017.37
2019-05-29T09:34:11.866Z,1017.35
2019-05-29T09:35:11.867Z,1017.28
2019-05-29T09:36:11.840Z,1017.23
2019-05-29T09:37:11.919Z,1017.22
2019-05-29T09:38:11.733Z,1017.25
2019-05-29T09:39:11.695Z,1017.23
2019-05-29T09:40:11.662Z,1017.24
2019-05-29T09:41:11.640Z,1017.24
2019-05-29T09:42:11.649Z,1017.18
2019-05-29T09:43:11.574Z,1017.17
2019-05-29T09:44:28.137Z,1017.18
2019-05-29T09:45:11.512Z,1017.22
2019-05-29T09:46:11.970Z,1017.20
2019-05-29T09:47:11.440Z,1017.22
2019-05-29T09:48:11.441Z,1017.18
2019-05-29T09:49:11.367Z,1017.17
2019-05-29T09:50:11.337Z,1017.23
2019-05-29T09:51:21.165Z,1017.22
2019-05-29T09:52:11.298Z,1017.24
2019-05-29T09:53:11.268Z,1017.26
2019-05-29T09:54:11.277Z,1017.12
2019-05-29T09:55:11.172Z,1017.23
2019-05-29T09:56:11.134Z,1017.22
2019-05-29T09:57:14.602Z,1017.17
2019-05-29T09:58:11.096Z,1017.18
2019-05-29T09:59:11.037Z,1017.22
2019-05-29T10:00:11.021Z,1017.22
2019-05-29T10:01:22.685Z,1017.19
2019-05-29T10:02:10.941Z,1017.08
2019-05-29T10:03:10.929Z,1017.09
2019-05-29T10:04:10.866Z,1017.10
2019-05-29T10:05:10.838Z,1017.05
2019-05-29T10:06:10.832Z,1017.18
2019-05-29T10:07:10.759Z,1017.15
2019-05-29T10:08:10.747Z,1017.17
2019-05-29T10:09:10.697Z,1017.04
2019-05-29T10:10:10.685Z,1017.15
2019-05-29T10:11:11.190Z,1017.11
2019-05-29T10:12:10.585Z,1017.09
2019-05-29T10:13:19.597Z,1017.00
2019-05-29T10:14:10.518Z,1016.96
2019-05-29T10:15:10.519Z,1017.02
2019-05-29T10:16:10.454Z,1017.06
2019-05-29T10:17:12.511Z,1017.02
2019-05-29T10:18:30.022Z,1017.00
2019-05-29T10:19:10.343Z,1017.06
2019-05-29T10:20:10.343Z,1016.99
2019-05-29T10:21:19.148Z,1017.00
2019-05-29T10:22:10.248Z,1016.98
2019-05-29T10:23:10.208Z,1016.99
2019-05-29T10:24:10.173Z,1017.03
2019-05-29T10:25:10.163Z,1017.00
2019-05-29T10:26:10.164Z,1016.99
2019-05-29T10:27:10.080Z,1017.00
2019-05-29T10:28:10.067Z,1017.01
2019-05-29T10:29:10.252Z,1017.01
2019-05-29T10:30:09.962Z,1017.04
2019-05-29T10:31:09.958Z,1017.02
2019-05-29T10:32:09.928Z,1017.09
2019-05-29T10:33:09.863Z,1017.13
2019-05-29T10:34:09.847Z,1017.12
2019-05-29T10:35:09.824Z,1017.09
2019-05-29T10:36:09.780Z,1017.18
2019-05-29T10:37:09.768Z,1017.34
2019-05-29T10:38:09.691Z,1017.38
2019-05-29T10:39:12.752Z,1017.33
2019-05-29T10:40:09.662Z,1017.36
2019-05-29T10:41:09.590Z,1017.34
2019-05-29T10:42:09.603Z,1017.32
2019-05-29T10:43:09.516Z,1017.35
2019-05-29T10:44:12.656Z,1017.36
2019-05-29T10:45:09.454Z,1017.33
2019-05-29T10:46:09.422Z,1017.36
2019-05-29T10:47:09.420Z,1017.35
2019-05-29T10:48:09.709Z,1017.35
2019-05-29T10:49:09.316Z,1017.35
2019-05-29T10:50:09.309Z,1017.33
2019-05-29T10:51:09.238Z,1017.36
2019-05-29T10:52:15.664Z,1017.35
2019-05-29T10:53:09.207Z,1017.39
2019-05-29T10:54:09.150Z,1017.33
2019-05-29T10:55:09.110Z,1017.38
2019-05-29T10:56:09.074Z,1017.38
2019-05-29T10:57:09.051Z,1017.38
2019-05-29T10:58:09.054Z,1017.38
2019-05-29T10:59:08.974Z,1017.40
2019-05-29T11:00:08.948Z,1017.40
2019-05-29T11:01:08.896Z,1017.39
2019-05-29T11:02:08.865Z,1017.42
2019-05-29T11:03:08.900Z,1017.38
2019-05-29T11:04:08.840Z,1017.38
2019-05-29T11:05:08.771Z,1017.38
2019-05-29T11:06:08.738Z,1017.34
2019-05-29T11:07:08.701Z,1017.36
2019-05-29T11:08:08.672Z,1017.42
2019-05-29T11:09:08.647Z,1017.37
2019-05-29T11:10:08.627Z,1017.37
2019-05-29T11:11:08.597Z,1017.39
2019-05-29T11:12:08.525Z,1017.34
2019-05-29T11:13:08.516Z,1017.34
2019-05-29T11:14:08.466Z,1017.43
2019-05-29T11:15:20.796Z,1017.39
2019-05-29T11:16:08.423Z,1017.38
2019-05-29T11:17:08.372Z,1017.33
2019-05-29T11:18:08.326Z,1017.38
2019-05-29T11:19:08.299Z,1017.35
2019-05-29T11:20:08.265Z,1017.35
2019-05-29T11:21:08.249Z,1017.34
2019-05-29T11:22:25.121Z,1017.34
2019-05-29T11:23:08.164Z,1017.29
2019-05-29T11:24:08.122Z,1017.31
2019-05-29T11:25:21.743Z,1017.29
2019-05-29T11:26:08.097Z,1017.30
2019-05-29T11:27:08.072Z,1017.28
2019-05-29T11:28:07.999Z,1017.25
2019-05-29T11:29:07.957Z,1017.26
2019-05-29T11:30:07.930Z,1017.26
2019-05-29T11:31:07.906Z,1017.30
2019-05-29T11:32:07.902Z,1017.24
2019-05-29T11:33:07.835Z,1017.21
2019-05-29T11:34:07.796Z,1017.25
2019-05-29T11:35:07.776Z,1017.25
2019-05-29T11:36:12.907Z,1017.27
2019-05-29T11:37:07.711Z,1017.26
2019-05-29T11:38:07.712Z,1017.22
2019-05-29T11:39:07.637Z,1017.28
2019-05-29T11:40:07.617Z,1017.21
2019-05-29T11:41:25.072Z,1017.22
2019-05-29T11:42:07.536Z,1017.18
2019-05-29T11:43:07.511Z,1017.20
2019-05-29T11:44:07.510Z,1017.26
2019-05-29T11:45:07.451Z,1017.28
2019-05-29T11:46:07.422Z,1017.26
2019-05-29T11:47:07.385Z,1017.29
2019-05-29T11:48:07.361Z,1017.31
2019-05-29T11:49:07.358Z,1017.24
2019-05-29T11:50:18.752Z,1017.21
2019-05-29T11:51:07.256Z,1017.20
2019-05-29T11:52:23.577Z,1017.16
2019-05-29T11:53:07.190Z,1017.13
2019-05-29T11:54:07.153Z,1017.15
2019-05-29T11:55:08.149Z,1017.11
2019-05-29T11:56:07.101Z,1017.03
2019-05-29T11:57:07.069Z,1017.04
2019-05-29T11:58:07.037Z,1017.05
2019-05-29T11:59:07.005Z,1017.07
2019-05-29T12:00:17.896Z,1017.01
2019-05-29T12:01:06.942Z,1016.97
2019-05-29T12:02:06.907Z,1016.91
2019-05-29T12:03:06.910Z,1016.93
2019-05-29T12:04:23.256Z,1016.88
2019-05-29T12:05:06.848Z,1016.83